sensor_id;sensor_type;location;lat;lon;timestamp;pressure;altitude;pressure_sealevel;temperature;humidity
23166;BME280;11751;42.700;24.170;2024-02-21T00:01:27;94530.63;;;6.35;100.00
23166;BME280;11751;42.700;24.170;2024-02-21T00:03:52;94518.69;;;6.40;100.00
23166;BME280;11751;42.700;24.170;2024-02-21T00:06:18;94516.94;;;6.37;100.00
23166;BME280;11751;42.700;24.170;2024-02-21T00:08:43;94532.38;;;6.33;100.00
23166;BME280;11751;42.700;24.170;2024-02-21T00:11:09;94518.28;;;6.31;100.00
23166;BME280;11751;42.700;24.170;2024-02-21T00:13:34;94523.41;;;6.21;100.00
23166;BME280;11751;42.700;24.170;2024-02-21T00:16:01;94527.06;;;6.35;100.00
23166;BME280;11751;42.700;24.170;2024-02-21T00:18:27;94524.28;;;6.35;100.00
23166;BME280;11751;42.700;24.170;2024-02-21T00:20:52;94515.69;;;6.33;100.00
23166;BME280;11751;42.700;24.170;2024-02-21T00:23:17;94510.09;;;6.38;100.00
23166;BME280;11751;42.700;24.170;2024-02-21T00:25:43;94512.41;;;6.34;100.00
23166;BME280;11751;42.700;24.170;2024-02-21T00:28:08;94519.88;;;6.21;100.00
23166;BME280;11751;42.700;24.170;2024-02-21T00:30:34;94515.00;;;6.27;100.00
23166;BME280;11751;42.700;24.170;2024-02-21T00:32:59;94521.00;;;6.36;100.00
23166;BME280;11751;42.700;24.170;2024-02-21T00:35:25;94521.16;;;6.44;100.00
23166;BME280;11751;42.700;24.170;2024-02-21T00:37:51;94517.50;;;6.30;100.00
23166;BME280;11751;42.700;24.170;2024-02-21T00:40:16;94522.31;;;6.30;100.00
23166;BME280;11751;42.700;24.170;2024-02-21T00:42:45;94507.41;;;6.27;100.00
23166;BME280;11751;42.700;24.170;2024-02-21T00:45:11;94513.94;;;6.35;100.00
23166;BME280;11751;42.700;24.170;2024-02-21T00:47:36;94515.00;;;6.27;100.00
23166;BME280;11751;42.700;24.170;2024-02-21T00:50:01;94512.81;;;6.20;100.00
23166;BME280;11751;42.700;24.170;2024-02-21T00:52:27;94516.84;;;6.19;100.00
23166;BME280;11751;42.700;24.170;2024-02-21T00:54:52;94505.25;;;6.15;100.00
23166;BME280;11751;42.700;24.170;2024-02-21T00:57:18;94514.31;;;6.21;100.00
23166;BME280;11751;42.700;24.170;2024-02-21T00:59:43;94500.91;;;6.19;100.00
23166;BME280;11751;42.700;24.170;2024-02-21T01:02:08;94512.91;;;6.09;100.00
23166;BME280;11751;42.700;24.170;2024-02-21T01:04:34;94516.66;;;6.11;100.00
23166;BME280;11751;42.700;24.170;2024-02-21T01:07:00;94512.38;;;6.10;100.00
23166;BME280;11751;42.700;24.170;2024-02-21T01:09:25;94504.88;;;6.00;100.00
23166;BME280;11751;42.700;24.170;2024-02-21T01:11:51;94504.88;;;6.00;100.00
23166;BME280;11751;42.700;24.170;2024-02-21T01:14:16;94497.63;;;6.21;100.00
23166;BME280;11751;42.700;24.170;2024-02-21T01:16:41;94500.72;;;6.12;100.00
23166;BME280;11751;42.700;24.170;2024-02-21T01:19:07;94498.94;;;6.14;100.00
23166;BME280;11751;42.700;24.170;2024-02-21T01:21:32;94491.13;;;6.13;100.00
23166;BME280;11751;42.700;24.170;2024-02-21T01:23:58;94502.75;;;6.11;100.00
23166;BME280;11751;42.700;24.170;2024-02-21T01:26:23;94492.06;;;6.21;100.00
23166;BME280;11751;42.700;24.170;2024-02-21T01:28:49;94495.84;;;6.23;100.00
23166;BME280;11751;42.700;24.170;2024-02-21T01:31:14;94498.44;;;6.16;100.00
23166;BME280;11751;42.700;24.170;2024-02-21T01:33:40;94501.19;;;6.16;100.00
23166;BME280;11751;42.700;24.170;2024-02-21T01:36:06;94491.88;;;6.13;100.00
23166;BME280;11751;42.700;24.170;2024-02-21T01:38:32;94495.66;;;6.16;100.00
23166;BME280;11751;42.700;24.170;2024-02-21T01:40:58;94486.59;;;6.10;100.00
23166;BME280;11751;42.700;24.170;2024-02-21T01:43:23;94491.84;;;6.19;100.00
23166;BME280;11751;42.700;24.170;2024-02-21T01:45:52;94488.22;;;6.24;100.00
23166;BME280;11751;42.700;24.170;2024-02-21T01:48:18;94483.50;;;6.19;100.00
23166;BME280;11751;42.700;24.170;2024-02-21T01:50:45;94486.28;;;6.19;100.00
23166;BME280;11751;42.700;24.170;2024-02-21T01:53:14;94480.94;;;6.21;100.00
23166;BME280;11751;42.700;24.170;2024-02-21T01:55:46;94490.56;;;6.20;100.00
23166;BME280;11751;42.700;24.170;2024-02-21T01:58:15;94471.78;;;6.26;100.00
23166;BME280;11751;42.700;24.170;2024-02-21T02:00:45;94478.97;;;6.16;100.00
23166;BME280;11751;42.700;24.170;2024-02-21T02:03:11;94478.28;;;6.10;100.00
23166;BME280;11751;42.700;24.170;2024-02-21T02:05:49;94472.38;;;6.19;100.00
23166;BME280;11751;42.700;24.170;2024-02-21T02:08:21;94485.19;;;5.98;100.00
23166;BME280;11751;42.700;24.170;2024-02-21T02:10:49;94485.19;;;5.98;100.00
23166;BME280;11751;42.700;24.170;2024-02-21T02:13:15;94473.22;;;5.79;100.00
23166;BME280;11751;42.700;24.170;2024-02-21T02:15:47;94484.72;;;5.94;100.00
23166;BME280;11751;42.700;24.170;2024-02-21T02:18:14;94482.66;;;6.00;100.00
23166;BME280;11751;42.700;24.170;2024-02-21T02:20:40;94470.81;;;5.94;100.00
23166;BME280;11751;42.700;24.170;2024-02-21T02:23:12;94490.41;;;6.07;100.00
23166;BME280;11751;42.700;24.170;2024-02-21T02:25:39;94474.22;;;6.11;100.00
23166;BME280;11751;42.700;24.170;2024-02-21T02:28:08;94475.94;;;6.14;100.00
23166;BME280;11751;42.700;24.170;2024-02-21T02:30:34;94473.59;;;6.23;100.00
23166;BME280;11751;42.700;24.170;2024-02-21T02:33:02;94474.34;;;6.24;100.00
23166;BME280;11751;42.700;24.170;2024-02-21T02:35:27;94476.41;;;6.18;100.00
23166;BME280;11751;42.700;24.170;2024-02-21T02:37:53;94473.88;;;6.20;100.00
23166;BME280;11751;42.700;24.170;2024-02-21T02:40:19;94473.78;;;6.31;100.00
23166;BME280;11751;42.700;24.170;2024-02-21T02:42:44;94473.69;;;6.12;100.00
23166;BME280;11751;42.700;24.170;2024-02-21T02:45:10;94477.00;;;6.11;100.00
23166;BME280;11751;42.700;24.170;2024-02-21T02:47:35;94471.66;;;6.13;100.00
23166;BME280;11751;42.700;24.170;2024-02-21T02:50:01;94469.63;;;6.13;100.00
23166;BME280;11751;42.700;24.170;2024-02-21T02:52:26;94475.94;;;6.14;100.00
23166;BME280;11751;42.700;24.170;2024-02-21T02:54:52;94470.03;;;6.23;100.00
23166;BME280;11751;42.700;24.170;2024-02-21T02:57:20;94459.16;;;6.25;100.00
23166;BME280;11751;42.700;24.170;2024-02-21T02:59:50;94469.34;;;6.17;100.00
23166;BME280;11751;42.700;24.170;2024-02-21T03:02:16;94463.22;;;6.24;100.00
23166;BME280;11751;42.700;24.170;2024-02-21T03:04:42;94472.38;;;6.19;100.00
23166;BME280;11751;42.700;24.170;2024-02-21T03:07:08;94466.91;;;6.08;100.00
23166;BME280;11751;42.700;24.170;2024-02-21T03:09:33;94465.50;;;5.96;100.00
23166;BME280;11751;42.700;24.170;2024-02-21T03:11:59;94465.41;;;6.07;100.00
23166;BME280;11751;42.700;24.170;2024-02-21T03:14:30;94469.81;;;5.92;100.00
23166;BME280;11751;42.700;24.170;2024-02-21T03:16:56;94461.94;;;6.01;100.00
23166;BME280;11751;42.700;24.170;2024-02-21T03:19:22;94471.34;;;5.93;100.00
23166;BME280;11751;42.700;24.170;2024-02-21T03:21:48;94468.28;;;5.96;100.00
23166;BME280;11751;42.700;24.170;2024-02-21T03:24:16;94464.47;;;5.99;100.00
23166;BME280;11751;42.700;24.170;2024-02-21T03:26:41;94478.94;;;5.92;100.00
23166;BME280;11751;42.700;24.170;2024-02-21T03:29:07;94472.38;;;5.90;100.00
23166;BME280;11751;42.700;24.170;2024-02-21T03:31:33;94481.44;;;5.95;100.00
23166;BME280;11751;42.700;24.170;2024-02-21T03:33:58;94480.19;;;5.91;100.00
23166;BME280;11751;42.700;24.170;2024-02-21T03:36:24;94483.69;;;5.97;100.00
23166;BME280;11751;42.700;24.170;2024-02-21T03:38:49;94485.94;;;5.98;100.00
23166;BME280;11751;42.700;24.170;2024-02-21T03:41:14;94488.72;;;5.98;100.00
23166;BME280;11751;42.700;24.170;2024-02-21T03:43:40;94489.25;;;5.97;100.00
23166;BME280;11751;42.700;24.170;2024-02-21T03:46:06;94488.75;;;5.93;100.00
23166;BME280;11751;42.700;24.170;2024-02-21T03:48:32;94494.50;;;6.00;100.00
23166;BME280;11751;42.700;24.170;2024-02-21T03:50:58;94492.22;;;6.04;100.00
23166;BME280;11751;42.700;24.170;2024-02-21T03:53:23;94492.47;;;6.06;100.00
23166;BME280;11751;42.700;24.170;2024-02-21T03:55:49;94476.16;;;5.92;100.00
23166;BME280;11751;42.700;24.170;2024-02-21T03:58:14;94486.16;;;6.00;100.00
23166;BME280;11751;42.700;24.170;2024-02-21T04:00:39;94496.78;;;6.02;100.00
23166;BME280;11751;42.700;24.170;2024-02-21T04:03:05;94486.13;;;6.06;100.00
23166;BME280;11751;42.700;24.170;2024-02-21T04:05:31;94488.13;;;6.11;100.00
23166;BME280;11751;42.700;24.170;2024-02-21T04:07:57;94490.31;;;6.18;100.00
23166;BME280;11751;42.700;24.170;2024-02-21T04:10:22;94488.56;;;6.15;100.00
23166;BME280;11751;42.700;24.170;2024-02-21T04:12:48;94493.69;;;6.11;100.00
23166;BME280;11751;42.700;24.170;2024-02-21T04:15:16;94493.84;;;6.18;100.00
23166;BME280;11751;42.700;24.170;2024-02-21T04:17:41;94496.22;;;6.09;100.00
23166;BME280;11751;42.700;24.170;2024-02-21T04:20:14;94494.72;;;6.08;100.00
23166;BME280;11751;42.700;24.170;2024-02-21T04:22:39;94491.13;;;6.13;100.00
23166;BME280;11751;42.700;24.170;2024-02-21T04:25:05;94492.16;;;6.10;100.00
23166;BME280;11751;42.700;24.170;2024-02-21T04:27:30;94496.47;;;6.11;100.00
23166;BME280;11751;42.700;24.170;2024-02-21T04:29:56;94495.16;;;6.12;100.00
23166;BME280;11751;42.700;24.170;2024-02-21T04:32:21;94501.00;;;6.08;100.00
23166;BME280;11751;42.700;24.170;2024-02-21T04:34:47;94498.75;;;6.07;100.00
23166;BME280;11751;42.700;24.170;2024-02-21T04:37:12;94509.88;;;6.07;100.00
23166;BME280;11751;42.700;24.170;2024-02-21T04:39:38;94499.78;;;6.04;100.00
23166;BME280;11751;42.700;24.170;2024-02-21T04:42:03;94500.72;;;6.12;100.00
23166;BME280;11751;42.700;24.170;2024-02-21T04:44:28;94511.59;;;6.15;100.00
23166;BME280;11751;42.700;24.170;2024-02-21T04:46:54;94507.78;;;6.13;100.00
23166;BME280;11751;42.700;24.170;2024-02-21T04:49:19;94507.78;;;6.13;100.00
23166;BME280;11751;42.700;24.170;2024-02-21T04:51:45;94500.28;;;6.08;100.00
23166;BME280;11751;42.700;24.170;2024-02-21T04:54:10;94495.66;;;6.16;100.00
23166;BME280;11751;42.700;24.170;2024-02-21T04:56:35;94512.31;;;6.16;100.00
23166;BME280;11751;42.700;24.170;2024-02-21T04:59:01;94503.28;;;6.10;100.00
23166;BME280;11751;42.700;24.170;2024-02-21T05:01:28;94515.91;;;6.11;100.00
23166;BME280;11751;42.700;24.170;2024-02-21T05:03:53;94516.66;;;6.11;100.00
23166;BME280;11751;42.700;24.170;2024-02-21T05:06:19;94504.41;;;5.96;100.00
23166;BME280;11751;42.700;24.170;2024-02-21T05:08:44;94508.94;;;5.99;100.00
23166;BME280;11751;42.700;24.170;2024-02-21T05:11:10;94515.91;;;6.11;100.00
23166;BME280;11751;42.700;24.170;2024-02-21T05:13:35;94518.91;;;6.13;100.00
23166;BME280;11751;42.700;24.170;2024-02-21T05:16:01;94512.31;;;6.16;100.00
23166;BME280;11751;42.700;24.170;2024-02-21T05:18:27;94519.25;;;6.04;100.00
23166;BME280;11751;42.700;24.170;2024-02-21T05:20:53;94517.19;;;6.10;100.00
23166;BME280;11751;42.700;24.170;2024-02-21T05:23:19;94513.59;;;6.15;100.00
23166;BME280;11751;42.700;24.170;2024-02-21T05:25:44;94517.41;;;6.12;100.00
23166;BME280;11751;42.700;24.170;2024-02-21T05:28:09;94520.06;;;5.99;100.00
23166;BME280;11751;42.700;24.170;2024-02-21T05:30:35;94522.25;;;6.06;100.00
23166;BME280;11751;42.700;24.170;2024-02-21T05:33:07;94522.03;;;6.04;100.00
23166;BME280;11751;42.700;24.170;2024-02-21T05:35:33;94528.34;;;6.04;100.00
23166;BME280;11751;42.700;24.170;2024-02-21T05:37:59;94516.94;;;6.08;100.00
23166;BME280;11751;42.700;24.170;2024-02-21T05:40:24;94534.66;;;6.05;100.00
23166;BME280;11751;42.700;24.170;2024-02-21T05:42:50;94528.06;;;6.08;100.00
23166;BME280;11751;42.700;24.170;2024-02-21T05:45:17;94535.09;;;6.14;100.00
23166;BME280;11751;42.700;24.170;2024-02-21T05:47:42;94532.28;;;6.20;100.00
23166;BME280;11751;42.700;24.170;2024-02-21T05:50:09;94528.44;;;6.23;100.00
23166;BME280;11751;42.700;24.170;2024-02-21T05:52:35;94539.09;;;6.19;100.00
23166;BME280;11751;42.700;24.170;2024-02-21T05:55:00;94533.53;;;6.19;100.00
23166;BME280;11751;42.700;24.170;2024-02-21T05:57:25;94540.03;;;6.27;100.00
23166;BME280;11751;42.700;24.170;2024-02-21T05:59:51;94539.41;;;6.39;100.00
23166;BME280;11751;42.700;24.170;2024-02-21T06:02:16;94536.19;;;6.35;100.00
23166;BME280;11751;42.700;24.170;2024-02-21T06:04:42;94538.72;;;6.33;100.00
23166;BME280;11751;42.700;24.170;2024-02-21T06:07:08;94542.00;;;6.32;100.00
23166;BME280;11751;42.700;24.170;2024-02-21T06:09:34;94539.00;;;6.30;100.00
23166;BME280;11751;42.700;24.170;2024-02-21T06:11:59;94540.03;;;6.27;100.00
23166;BME280;11751;42.700;24.170;2024-02-21T06:14:25;94545.50;;;6.38;100.00
23166;BME280;11751;42.700;24.170;2024-02-21T06:16:50;94551.72;;;6.49;100.00
23166;BME280;11751;42.700;24.170;2024-02-21T06:19:15;94558.25;;;6.52;100.00
23166;BME280;11751;42.700;24.170;2024-02-21T06:21:41;94554.78;;;6.46;100.00
23166;BME280;11751;42.700;24.170;2024-02-21T06:24:06;94566.94;;;6.43;100.00
23166;BME280;11751;42.700;24.170;2024-02-21T06:26:32;94560.88;;;6.44;100.00
23166;BME280;11751;42.700;24.170;2024-02-21T06:28:57;94563.38;;;6.48;100.00
23166;BME280;11751;42.700;24.170;2024-02-21T06:31:25;94574.16;;;6.57;100.00
23166;BME280;11751;42.700;24.170;2024-02-21T06:33:50;94567.81;;;6.56;100.00
23166;BME280;11751;42.700;24.170;2024-02-21T06:36:16;94575.66;;;6.58;100.00
23166;BME280;11751;42.700;24.170;2024-02-21T06:38:41;94574.66;;;6.61;100.00
23166;BME280;11751;42.700;24.170;2024-02-21T06:41:15;94576.25;;;6.51;100.00
23166;BME280;11751;42.700;24.170;2024-02-21T06:43:40;94573.63;;;6.58;100.00
23166;BME280;11751;42.700;24.170;2024-02-21T06:46:06;94566.06;;;6.59;100.00
23166;BME280;11751;42.700;24.170;2024-02-21T06:48:31;94573.59;;;6.64;100.00
23166;BME280;11751;42.700;24.170;2024-02-21T06:50:56;94583.38;;;6.70;100.00
23166;BME280;11751;42.700;24.170;2024-02-21T06:53:22;94586.13;;;6.76;100.00
23166;BME280;11751;42.700;24.170;2024-02-21T06:55:47;94580.06;;;6.72;100.00
23166;BME280;11751;42.700;24.170;2024-02-21T06:58:13;94575.22;;;6.78;100.00
23166;BME280;11751;42.700;24.170;2024-02-21T07:00:39;94579.41;;;6.89;100.00
23166;BME280;11751;42.700;24.170;2024-02-21T07:03:05;94579.28;;;7.00;100.00
23166;BME280;11751;42.700;24.170;2024-02-21T07:05:31;94591.09;;;6.82;100.00
23166;BME280;11751;42.700;24.170;2024-02-21T07:07:56;94592.75;;;6.96;100.00
23166;BME280;11751;42.700;24.170;2024-02-21T07:10:21;94581.09;;;6.98;100.00
23166;BME280;11751;42.700;24.170;2024-02-21T07:12:47;94594.06;;;6.90;100.00
23166;BME280;11751;42.700;24.170;2024-02-21T07:15:13;94591.34;;;6.84;100.00
23166;BME280;11751;42.700;24.170;2024-02-21T07:17:39;94591.81;;;6.88;100.00
23166;BME280;11751;42.700;24.170;2024-02-21T07:20:05;94593.09;;;6.87;99.61
23166;BME280;11751;42.700;24.170;2024-02-21T07:22:30;94599.69;;;6.84;100.00
23166;BME280;11751;42.700;24.170;2024-02-21T07:24:56;94606.09;;;7.03;99.70
23166;BME280;11751;42.700;24.170;2024-02-21T07:27:21;94599.50;;;7.25;99.31
23166;BME280;11751;42.700;24.170;2024-02-21T07:29:46;94596.44;;;7.04;99.59
23166;BME280;11751;42.700;24.170;2024-02-21T07:32:14;94592.22;;;7.22;98.91
23166;BME280;11751;42.700;24.170;2024-02-21T07:34:39;94592.16;;;7.27;99.01
23166;BME280;11751;42.700;24.170;2024-02-21T07:37:05;94605.97;;;7.38;98.24
23166;BME280;11751;42.700;24.170;2024-02-21T07:39:30;94593.06;;;7.35;97.95
23166;BME280;11751;42.700;24.170;2024-02-21T07:41:56;94591.38;;;7.27;97.41
23166;BME280;11751;42.700;24.170;2024-02-21T07:44:21;94592.03;;;7.38;97.37
23166;BME280;11751;42.700;24.170;2024-02-21T07:46:46;94593.94;;;7.25;97.66
23166;BME280;11751;42.700;24.170;2024-02-21T07:49:12;94587.97;;;6.91;98.46
23166;BME280;11751;42.700;24.170;2024-02-21T07:51:37;94593.78;;;7.17;97.80
23166;BME280;11751;42.700;24.170;2024-02-21T07:54:03;94588.78;;;7.10;98.05
23166;BME280;11751;42.700;24.170;2024-02-21T07:56:29;94588.56;;;7.08;98.44
23166;BME280;11751;42.700;24.170;2024-02-21T07:58:55;94587.53;;;6.87;97.54
23166;BME280;11751;42.700;24.170;2024-02-21T08:01:20;94590.88;;;7.04;98.16
23166;BME280;11751;42.700;24.170;2024-02-21T08:03:46;94588.38;;;7.25;97.21
23166;BME280;11751;42.700;24.170;2024-02-21T08:06:12;94592.41;;;7.29;96.98
23166;BME280;11751;42.700;24.170;2024-02-21T08:08:38;94594.28;;;7.40;97.13
23166;BME280;11751;42.700;24.170;2024-02-21T08:11:04;94597.31;;;7.60;96.69
23166;BME280;11751;42.700;24.170;2024-02-21T08:13:29;94604.75;;;7.52;96.25
23166;BME280;11751;42.700;24.170;2024-02-21T08:15:54;94598.44;;;7.52;95.92
23166;BME280;11751;42.700;24.170;2024-02-21T08:18:20;94594.09;;;7.56;95.67
23166;BME280;11751;42.700;24.170;2024-02-21T08:20:45;94591.75;;;7.60;95.53
23166;BME280;11751;42.700;24.170;2024-02-21T08:23:11;94592.56;;;7.55;95.58
23166;BME280;11751;42.700;24.170;2024-02-21T08:25:37;94594.63;;;7.73;96.32
23166;BME280;11751;42.700;24.170;2024-02-21T08:28:02;94598.53;;;7.83;96.13
23166;BME280;11751;42.700;24.170;2024-02-21T08:30:28;94594.00;;;7.80;95.24
23166;BME280;11751;42.700;24.170;2024-02-21T08:32:53;94593.34;;;7.92;93.70
23166;BME280;11751;42.700;24.170;2024-02-21T08:35:21;94592.50;;;7.97;94.35
23166;BME280;11751;42.700;24.170;2024-02-21T08:37:50;94592.66;;;8.05;93.31
23166;BME280;11751;42.700;24.170;2024-02-21T08:40:15;94589.34;;;8.25;93.22
23166;BME280;11751;42.700;24.170;2024-02-21T08:42:46;94607.38;;;8.55;92.65
23166;BME280;11751;42.700;24.170;2024-02-21T08:45:12;94596.34;;;8.62;91.95
23166;BME280;11751;42.700;24.170;2024-02-21T08:47:41;94592.50;;;8.65;90.56
23166;BME280;11751;42.700;24.170;2024-02-21T08:50:07;94601.53;;;8.71;89.84
23166;BME280;11751;42.700;24.170;2024-02-21T08:52:35;94602.41;;;8.79;90.11
23166;BME280;11751;42.700;24.170;2024-02-21T08:55:00;94588.63;;;8.68;90.09
23166;BME280;11751;42.700;24.170;2024-02-21T08:57:27;94593.78;;;9.09;89.65
23166;BME280;11751;42.700;24.170;2024-02-21T08:59:52;94591.75;;;9.22;88.61
23166;BME280;11751;42.700;24.170;2024-02-21T09:02:17;94599.06;;;9.51;87.56
23166;BME280;11751;42.700;24.170;2024-02-21T09:04:43;94600.00;;;9.66;87.47
23166;BME280;11751;42.700;24.170;2024-02-21T09:07:11;94599.34;;;9.73;86.87
23166;BME280;11751;42.700;24.170;2024-02-21T09:09:37;94590.00;;;9.58;86.92
23166;BME280;11751;42.700;24.170;2024-02-21T09:12:06;94588.16;;;9.60;86.65
23166;BME280;11751;42.700;24.170;2024-02-21T09:14:32;94598.72;;;9.67;85.62
23166;BME280;11751;42.700;24.170;2024-02-21T09:16:58;94596.22;;;9.77;84.18
23166;BME280;11751;42.700;24.170;2024-02-21T09:19:23;94590.00;;;9.58;83.50
23166;BME280;11751;42.700;24.170;2024-02-21T09:21:49;94590.56;;;9.43;83.51
23166;BME280;11751;42.700;24.170;2024-02-21T09:24:14;94585.13;;;9.97;83.81
23166;BME280;11751;42.700;24.170;2024-02-21T09:26:40;94589.28;;;10.17;81.92
23166;BME280;11751;42.700;24.170;2024-02-21T09:29:05;94588.34;;;10.34;80.63
23166;BME280;11751;42.700;24.170;2024-02-21T09:31:31;94589.59;;;10.46;81.20
23166;BME280;11751;42.700;24.170;2024-02-21T09:33:56;94595.44;;;10.69;81.20
23166;BME280;11751;42.700;24.170;2024-02-21T09:36:21;94599.75;;;10.90;80.90
23166;BME280;11751;42.700;24.170;2024-02-21T09:38:47;94597.69;;;11.11;78.09
23166;BME280;11751;42.700;24.170;2024-02-21T09:41:25;94595.75;;;11.06;77.33
23166;BME280;11751;42.700;24.170;2024-02-21T09:43:53;94594.13;;;11.10;77.82
23166;BME280;11751;42.700;24.170;2024-02-21T09:46:21;94592.75;;;11.04;77.57
23166;BME280;11751;42.700;24.170;2024-02-21T09:51:24;94587.84;;;11.45;76.14
23166;BME280;11751;42.700;24.170;2024-02-21T09:53:53;94580.75;;;11.52;76.33
23166;BME280;11751;42.700;24.170;2024-02-21T09:56:19;94577.81;;;11.29;77.07
23166;BME280;11751;42.700;24.170;2024-02-21T09:58:46;94575.94;;;11.52;76.82
23166;BME280;11751;42.700;24.170;2024-02-21T10:01:12;94582.75;;;11.64;74.64
23166;BME280;11751;42.700;24.170;2024-02-21T10:03:37;94573.72;;;11.58;76.01
23166;BME280;11751;42.700;24.170;2024-02-21T10:06:03;94574.41;;;11.51;72.97
23166;BME280;11751;42.700;24.170;2024-02-21T10:08:30;94566.44;;;11.35;75.42
23166;BME280;11751;42.700;24.170;2024-02-21T10:10:55;94558.31;;;11.52;73.85
23166;BME280;11751;42.700;24.170;2024-02-21T10:13:29;94552.06;;;11.59;74.66
23166;BME280;11751;42.700;24.170;2024-02-21T10:16:08;94552.63;;;11.37;72.57
23166;BME280;11751;42.700;24.170;2024-02-21T10:18:44;94560.34;;;11.16;72.95
23166;BME280;11751;42.700;24.170;2024-02-21T10:21:09;94551.22;;;11.51;72.16
23166;BME280;11751;42.700;24.170;2024-02-21T10:23:45;94541.06;;;11.40;73.29
23166;BME280;11751;42.700;24.170;2024-02-21T10:26:11;94539.72;;;11.62;71.18
23166;BME280;11751;42.700;24.170;2024-02-21T10:28:37;94539.72;;;11.62;70.34
23166;BME280;11751;42.700;24.170;2024-02-21T10:31:24;94531.13;;;11.60;70.18
23166;BME280;11751;42.700;24.170;2024-02-21T10:33:59;94525.38;;;11.73;71.22
23166;BME280;11751;42.700;24.170;2024-02-21T10:36:28;94520.69;;;11.68;72.44
23166;BME280;11751;42.700;24.170;2024-02-21T10:38:53;94512.28;;;11.75;70.86
23166;BME280;11751;42.700;24.170;2024-02-21T10:41:22;94502.66;;;12.06;68.64
23166;BME280;11751;42.700;24.170;2024-02-21T10:43:54;94499.16;;;12.20;69.03
23166;BME280;11751;42.700;24.170;2024-02-21T10:46:21;94496.19;;;12.48;68.91
23166;BME280;11751;42.700;24.170;2024-02-21T10:48:48;94499.03;;;12.56;68.27
23166;BME280;11751;42.700;24.170;2024-02-21T10:51:26;94491.72;;;12.68;65.84
23166;BME280;11751;42.700;24.170;2024-02-21T10:56:51;94484.03;;;12.38;67.82
23166;BME280;11751;42.700;24.170;2024-02-21T10:59:17;94489.09;;;12.47;67.76
23166;BME280;11751;42.700;24.170;2024-02-21T11:01:43;94481.44;;;12.55;66.25
23166;BME280;11751;42.700;24.170;2024-02-21T11:04:11;94475.22;;;12.79;66.51
23166;BME280;11751;42.700;24.170;2024-02-21T11:06:38;94481.09;;;12.88;66.06
23166;BME280;11751;42.700;24.170;2024-02-21T11:09:05;94477.13;;;12.84;65.24
23166;BME280;11751;42.700;24.170;2024-02-21T11:11:35;94470.00;;;12.76;65.49
23166;BME280;11751;42.700;24.170;2024-02-21T11:14:08;94460.25;;;12.69;65.75
23166;BME280;11751;42.700;24.170;2024-02-21T11:16:38;94463.06;;;12.84;65.80
23166;BME280;11751;42.700;24.170;2024-02-21T11:19:08;94470.56;;;13.04;65.02
23166;BME280;11751;42.700;24.170;2024-02-21T11:21:35;94471.50;;;12.69;63.92
23166;BME280;11751;42.700;24.170;2024-02-21T11:24:02;94463.25;;;12.86;63.66
23166;BME280;11751;42.700;24.170;2024-02-21T11:26:28;94464.56;;;12.70;64.70
23166;BME280;11751;42.700;24.170;2024-02-21T11:29:01;94459.50;;;12.69;65.00
23166;BME280;11751;42.700;24.170;2024-02-21T11:31:39;94460.25;;;12.69;65.26
23166;BME280;11751;42.700;24.170;2024-02-21T11:34:08;94459.50;;;12.69;64.39
23166;BME280;11751;42.700;24.170;2024-02-21T11:36:34;94458.19;;;12.55;65.21
23166;BME280;11751;42.700;24.170;2024-02-21T11:39:05;94461.97;;;12.57;65.74
23166;BME280;11751;42.700;24.170;2024-02-21T11:41:31;94459.28;;;12.29;65.94
23166;BME280;11751;42.700;24.170;2024-02-21T11:43:57;94456.66;;;12.24;66.46
23166;BME280;11751;42.700;24.170;2024-02-21T11:46:22;94451.00;;;11.94;66.55
23166;BME280;11751;42.700;24.170;2024-02-21T11:48:49;94449.16;;;12.11;66.02
23166;BME280;11751;42.700;24.170;2024-02-21T11:51:25;94452.66;;;11.90;66.56
23166;BME280;11751;42.700;24.170;2024-02-21T11:53:52;94440.31;;;11.78;67.47
23166;BME280;11751;42.700;24.170;2024-02-21T11:56:19;94448.88;;;11.80;66.52
23166;BME280;11751;42.700;24.170;2024-02-21T11:58:47;94431.13;;;11.70;66.07
23166;BME280;11751;42.700;24.170;2024-02-21T12:01:13;94434.25;;;11.66;67.59
23166;BME280;11751;42.700;24.170;2024-02-21T12:03:39;94434.63;;;11.63;67.12
23166;BME280;11751;42.700;24.170;2024-02-21T12:06:07;94431.25;;;11.57;66.76
23166;BME280;11751;42.700;24.170;2024-02-21T12:08:44;94428.25;;;11.55;66.85
23166;BME280;11751;42.700;24.170;2024-02-21T12:11:36;94421.19;;;11.69;67.53
23166;BME280;11751;42.700;24.170;2024-02-21T12:14:03;94426.41;;;11.65;66.81
23166;BME280;11751;42.700;24.170;2024-02-21T12:16:31;94419.88;;;11.62;66.70
23166;BME280;11751;42.700;24.170;2024-02-21T12:18:57;94419.69;;;11.68;66.35
23166;BME280;11751;42.700;24.170;2024-02-21T12:21:25;94415.53;;;11.54;65.88
23166;BME280;11751;42.700;24.170;2024-02-21T12:23:51;94414.09;;;11.75;63.95
23166;BME280;11751;42.700;24.170;2024-02-21T12:26:16;94409.09;;;11.89;64.37
23166;BME280;11751;42.700;24.170;2024-02-21T12:28:41;94414.09;;;11.68;62.43
23166;BME280;11751;42.700;24.170;2024-02-21T12:31:07;94414.47;;;11.72;62.75
23166;BME280;11751;42.700;24.170;2024-02-21T12:33:32;94405.09;;;11.62;61.32
23166;BME280;11751;42.700;24.170;2024-02-21T12:36:01;94407.69;;;11.52;62.90
23166;BME280;11751;42.700;24.170;2024-02-21T12:38:26;94398.47;;;11.52;62.62
23166;BME280;11751;42.700;24.170;2024-02-21T12:40:52;94398.16;;;11.63;61.95
23166;BME280;11751;42.700;24.170;2024-02-21T12:43:17;94391.78;;;11.55;62.26
23166;BME280;11751;42.700;24.170;2024-02-21T12:45:43;94392.69;;;11.50;61.37
23166;BME280;11751;42.700;24.170;2024-02-21T12:48:08;94392.69;;;11.50;62.21
23166;BME280;11751;42.700;24.170;2024-02-21T12:50:34;94387.81;;;11.50;61.00
23166;BME280;11751;42.700;24.170;2024-02-21T12:53:00;94383.88;;;11.46;62.11
23166;BME280;11751;42.700;24.170;2024-02-21T12:55:26;94382.63;;;11.54;62.18